Terminal Aerodrome Forecast
Issued by NWS Quad Cities IA IL

Home | Current Version | Previous Version | Text Only | Print | Product List | Glossary On
Versions: 1 2 3 4 5 6 7 8 9 10 11 12 13 14 15 16 17 18 19 20 21
000
FTUS43 KDVN 231100
TAFMLI
TAF
KMLI 231130Z 2312/2412 24010KT P6SM OVC017
     FM231400 23007KT P6SM SCT020
     FM231600 23011KT P6SM SCT200
     FM232200 23008KT P6SM BKN100
     FM240600 26006KT 6SM BR BKN080=

USA.gov is the U.S. government's official web portal to all federal, state and local government web resources and services.